Time;durP1;ratioP1;P1;durP2;ratioP2;P2;SDS_P1;SDS_P2;PMS_P1;PMS_P2;Temp;Humidity;BMP_temperature;BMP_pressure;BME280_temperature;BME280_humidity;BME280_pressure;Samples;Min_cycle;Max_cycle;Signal;HPM_P1;HPM_P2
2022/08/10 00:01:35;;;;;;;8.18;6.50;;;15.40;99.90;;;;;;5065544;28;20044;-71
2022/08/10 00:04:01;;;;;;;7.97;6.10;;;15.40;99.90;;;;;;5078325;28;20288;-72
2022/08/10 00:06:27;;;;;;;7.15;6.43;;;15.40;99.90;;;;;;5059167;28;20136;-72
2022/08/10 00:08:53;;;;;;;6.63;5.82;;;15.40;99.90;;;;;;5059339;28;20481;-72
2022/08/10 00:11:18;;;;;;;6.90;6.10;;;15.30;99.90;;;;;;5057881;28;20052;-72
2022/08/10 00:13:44;;;;;;;8.60;6.38;;;15.30;99.90;;;;;;5059962;28;20047;-72
2022/08/10 00:16:10;;;;;;;9.18;6.05;;;15.30;99.90;;;;;;5055118;28;20043;-72
2022/08/10 00:18:36;;;;;;;7.60;6.32;;;15.30;99.90;;;;;;5055250;28;20397;-73
2022/08/10 00:21:03;;;;;;;6.53;6.03;;;15.30;99.90;;;;;;5080610;28;20044;-72
2022/08/10 00:23:29;;;;;;;8.45;6.00;;;15.30;99.90;;;;;;5058298;28;20052;-72
2022/08/10 00:25:54;;;;;;;8.43;6.80;;;15.30;99.90;;;;;;5042275;28;20117;-72
2022/08/10 00:28:20;;;;;;;6.90;6.20;;;15.20;99.90;;;;;;5049457;28;20063;-72
2022/08/10 00:30:46;;;;;;;7.53;6.70;;;15.20;99.90;;;;;;5064520;28;20111;-72
2022/08/10 00:33:12;;;;;;;8.38;7.18;;;15.20;99.90;;;;;;5065701;28;20430;-72
2022/08/10 00:35:37;;;;;;;7.78;7.03;;;15.20;99.90;;;;;;5062362;28;20452;-72
2022/08/10 00:38:03;;;;;;;7.65;6.85;;;15.10;99.90;;;;;;5037348;28;20444;-72
2022/08/10 00:40:28;;;;;;;7.35;6.55;;;15.10;99.90;;;;;;5074656;28;20198;-72
2022/08/10 00:42:54;;;;;;;7.43;6.72;;;15.10;99.90;;;;;;5057990;28;20035;-72
2022/08/10 00:45:20;;;;;;;8.40;6.82;;;15.10;99.90;;;;;;5061057;28;20117;-72
2022/08/10 00:47:45;;;;;;;9.23;7.10;;;15.10;99.90;;;;;;5060733;28;20059;-72
2022/08/10 00:50:11;;;;;;;7.80;6.95;;;15.10;99.90;;;;;;5060910;28;20037;-72
2022/08/10 00:52:38;;;;;;;8.18;6.90;;;15.10;99.90;;;;;;5042589;28;20136;-72
2022/08/10 00:55:05;;;;;;;7.95;6.35;;;15.00;99.90;;;;;;5022255;28;1078887;-72
2022/08/10 00:57:33;;;;;;;9.60;7.50;;;15.00;99.90;;;;;;5058219;28;20064;-72
2022/08/10 00:59:59;;;;;;;9.13;8.20;;;15.00;99.90;;;;;;5045158;28;20512;-71
2022/08/10 01:02:30;;;;;;;8.55;7.00;;;15.00;99.90;;;;;;5056758;28;20076;-71
2022/08/10 01:04:58;;;;;;;7.72;6.88;;;15.00;99.90;;;;;;5058486;28;20115;-71
2022/08/10 01:07:49;;;;;;;8.63;7.63;;;14.90;99.90;;;;;;5059319;28;20041;-72
2022/08/10 01:10:32;;;;;;;8.00;7.20;;;14.90;99.90;;;;;;5041955;28;20122;-71
2022/08/10 01:13:24;;;;;;;9.35;7.53;;;14.90;99.90;;;;;;5077989;28;20447;-73
2022/08/10 01:16:04;;;;;;;8.90;7.88;;;14.90;99.90;;;;;;5045249;28;20431;-72
2022/08/10 01:18:46;;;;;;;9.02;8.10;;;14.90;99.90;;;;;;5048718;28;20044;-71
2022/08/10 01:21:50;;;;;;;8.05;7.25;;;14.80;99.90;;;;;;5064840;28;20659;-72
2022/08/10 01:24:46;;;;;;;9.40;8.43;;;14.80;99.90;;;;;;5064813;28;20123;-72
2022/08/10 01:27:35;;;;;;;8.68;7.88;;;14.80;99.90;;;;;;5058862;28;20119;-72
2022/08/10 01:30:05;;;;;;;9.63;8.35;;;14.80;99.90;;;;;;5055442;28;20119;-72
2022/08/10 01:32:36;;;;;;;9.57;8.75;;;14.80;99.90;;;;;;5062613;28;20404;-72
2022/08/10 01:35:07;;;;;;;12.57;8.18;;;14.80;99.90;;;;;;5059955;28;20052;-72
2022/08/10 01:37:38;;;;;;;10.57;9.57;;;14.80;99.90;;;;;;5063403;28;20444;-73
2022/08/10 01:40:08;;;;;;;10.68;8.68;;;14.70;99.90;;;;;;5064038;28;20119;-72
2022/08/10 01:42:35;;;;;;;10.10;9.10;;;14.70;99.90;;;;;;5058751;28;20032;-73
2022/08/10 01:45:04;;;;;;;10.90;9.35;;;14.70;99.90;;;;;;5056481;28;20087;-72
2022/08/10 01:50:46;;;;;;;11.40;10.27;;;14.70;99.90;;;;;;5035235;28;20186;-72
2022/08/10 01:53:17;;;;;;;11.02;9.93;;;14.70;99.90;;;;;;5056211;28;20091;-72
2022/08/10 01:55:44;;;;;;;10.60;9.60;;;14.70;99.90;;;;;;5045500;28;20079;-72
2022/08/10 01:58:11;;;;;;;11.80;10.07;;;14.70;99.90;;;;;;5044047;28;20067;-72
2022/08/10 02:00:41;;;;;;;12.23;10.18;;;14.70;99.90;;;;;;5044679;28;20036;-72
2022/08/10 02:03:09;;;;;;;12.35;10.95;;;14.70;99.90;;;;;;5065984;28;20051;-72
2022/08/10 02:05:39;;;;;;;11.75;10.30;;;14.70;99.90;;;;;;5042821;28;20119;-72
2022/08/10 02:08:10;;;;;;;11.68;10.02;;;14.70;99.90;;;;;;5064607;28;20362;-71
2022/08/10 02:10:39;;;;;;;11.75;10.10;;;14.70;99.90;;;;;;5058054;28;20465;-71
2022/08/10 02:13:05;;;;;;;11.70;10.52;;;14.70;99.90;;;;;;5056836;28;20052;-72
2022/08/10 02:15:33;;;;;;;12.88;11.48;;;14.60;99.90;;;;;;5053020;28;20343;-72
2022/08/10 02:18:01;;;;;;;12.35;10.55;;;14.70;99.90;;;;;;5058218;28;20358;-72
2022/08/10 02:20:47;;;;;;;12.05;10.80;;;14.70;99.90;;;;;;5061342;28;20041;-72
2022/08/10 02:23:21;;;;;;;11.82;9.63;;;14.70;99.90;;;;;;5060112;28;20093;-72
2022/08/10 02:25:48;;;;;;;11.35;10.10;;;14.60;99.90;;;;;;5040273;28;20029;-72
2022/08/10 02:28:18;;;;;;;12.05;10.82;;;14.60;99.90;;;;;;5060975;28;20472;-72
2022/08/10 02:30:45;;;;;;;11.82;10.63;;;14.60;99.90;;;;;;5056663;28;20053;-73
2022/08/10 02:33:14;;;;;;;13.57;10.05;;;14.60;99.90;;;;;;5061250;28;20039;-72
2022/08/10 02:35:41;;;;;;;11.40;10.20;;;14.60;99.90;;;;;;5053435;28;20037;-71
2022/08/10 02:38:08;;;;;;;12.20;11.00;;;14.60;99.90;;;;;;5054189;28;20078;-71
2022/08/10 02:40:38;;;;;;;13.35;10.82;;;14.60;99.90;;;;;;5053701;28;20143;-70
2022/08/10 02:43:32;;;;;;;12.38;11.05;;;14.60;99.90;;;;;;5076328;28;20481;-70
2022/08/10 02:46:09;;;;;;;11.95;10.80;;;14.50;99.90;;;;;;5045628;28;20043;-70
2022/08/10 02:48:43;;;;;;;11.38;10.20;;;14.60;99.90;;;;;;5054865;28;20049;-70
2022/08/10 02:51:26;;;;;;;12.13;10.70;;;14.60;99.90;;;;;;5060152;28;20082;-70
2022/08/10 02:54:00;;;;;;;12.27;11.05;;;14.50;99.90;;;;;;5044418;28;20080;-70
2022/08/10 02:56:59;;;;;;;12.07;10.73;;;14.50;99.90;;;;;;5058812;28;20064;-70
2022/08/10 02:59:32;;;;;;;14.30;11.48;;;14.60;99.90;;;;;;5050907;28;20346;-70
2022/08/10 03:02:02;;;;;;;13.07;11.07;;;14.50;99.90;;;;;;5053234;28;20049;-70
2022/08/10 03:04:43;;;;;;;13.38;11.98;;;14.50;99.90;;;;;;5040730;28;20106;-70
2022/08/10 03:07:13;;;;;;;13.88;12.35;;;14.50;99.90;;;;;;5058152;28;20442;-70
2022/08/10 03:09:40;;;;;;;14.65;12.82;;;14.50;99.90;;;;;;5055371;28;20075;-70
2022/08/10 03:12:07;;;;;;;14.18;12.70;;;14.50;99.90;;;;;;5058782;28;20071;-69
2022/08/10 03:14:36;;;;;;;13.45;11.90;;;14.50;99.90;;;;;;5060592;28;20033;-69
2022/08/10 03:17:03;;;;;;;14.85;13.35;;;14.50;99.90;;;;;;5056087;28;20070;-70
2022/08/10 03:19:32;;;;;;;14.55;13.15;;;14.50;99.90;;;;;;5055476;28;20033;-70
2022/08/10 03:21:58;;;;;;;17.38;14.10;;;14.50;99.90;;;;;;5063984;28;20401;-69
2022/08/10 03:24:26;;;;;;;15.52;13.93;;;14.50;99.90;;;;;;5053608;28;20996;-69
2022/08/10 03:26:54;;;;;;;14.73;12.88;;;14.50;99.90;;;;;;5057986;28;20053;-69
2022/08/10 03:29:21;;;;;;;14.68;12.98;;;14.50;99.90;;;;;;5050481;28;20063;-70
2022/08/10 03:31:49;;;;;;;18.33;13.98;;;14.50;99.90;;;;;;5060726;28;20115;-70
2022/08/10 03:34:16;;;;;;;14.18;12.68;;;14.50;99.90;;;;;;5055269;28;20135;-70
2022/08/10 03:36:42;;;;;;;13.80;11.65;;;14.50;99.90;;;;;;5062834;28;20033;-70
2022/08/10 03:39:08;;;;;;;15.05;12.52;;;14.50;99.90;;;;;;5058105;28;20041;-70
2022/08/10 03:41:40;;;;;;;16.60;13.68;;;14.50;99.90;;;;;;5059180;28;20571;-70
2022/08/10 03:44:07;;;;;;;14.75;12.60;;;14.50;99.90;;;;;;5056885;28;21987;-70
2022/08/10 03:46:36;;;;;;;13.40;11.65;;;14.40;99.90;;;;;;5057516;28;20151;-70
2022/08/10 03:49:04;;;;;;;16.95;13.65;;;14.50;99.90;;;;;;5063167;28;20049;-70
2022/08/10 03:51:31;;;;;;;15.00;12.02;;;14.50;99.90;;;;;;5062780;28;20125;-70
2022/08/10 03:53:58;;;;;;;14.05;12.70;;;14.50;99.90;;;;;;5055750;28;20091;-70
2022/08/10 03:56:24;;;;;;;14.73;12.05;;;14.50;99.90;;;;;;5064669;28;20084;-70
2022/08/10 03:58:50;;;;;;;15.70;12.80;;;14.50;99.90;;;;;;5059311;28;20071;-70
2022/08/10 04:01:17;;;;;;;15.40;12.45;;;14.40;99.90;;;;;;5063238;28;20048;-70
2022/08/10 04:03:43;;;;;;;18.55;13.20;;;14.40;99.90;;;;;;5047546;28;20045;-70
2022/08/10 04:06:10;;;;;;;15.73;12.65;;;14.40;99.90;;;;;;5063868;28;20040;-70
2022/08/10 04:08:42;;;;;;;14.70;12.85;;;14.40;99.90;;;;;;5065694;28;20048;-70
2022/08/10 04:11:12;;;;;;;14.77;13.23;;;14.40;99.90;;;;;;5066555;28;20045;-70
2022/08/10 04:13:38;;;;;;;14.55;12.77;;;14.40;99.90;;;;;;5064931;28;20048;-70
2022/08/10 04:16:04;;;;;;;16.52;13.32;;;14.40;99.90;;;;;;5053545;28;20174;-70
2022/08/10 04:18:31;;;;;;;16.25;13.75;;;14.40;99.90;;;;;;5066405;28;20097;-70
2022/08/10 04:21:03;;;;;;;15.43;13.85;;;14.40;99.90;;;;;;5062884;28;20113;-70
2022/08/10 04:23:33;;;;;;;19.55;13.10;;;14.40;99.90;;;;;;5046421;28;20056;-70
2022/08/10 04:25:59;;;;;;;16.50;13.13;;;14.30;99.90;;;;;;5061089;28;20060;-70
2022/08/10 04:28:25;;;;;;;17.38;11.98;;;14.30;99.90;;;;;;5063305;28;20040;-70
2022/08/10 04:30:53;;;;;;;16.38;13.32;;;14.30;99.90;;;;;;5039387;28;20083;-70
2022/08/10 04:33:22;;;;;;;16.05;12.52;;;14.30;99.90;;;;;;5060880;28;20041;-70
2022/08/10 04:35:49;;;;;;;14.45;12.77;;;14.40;99.90;;;;;;5061457;28;20040;-70
2022/08/10 04:38:17;;;;;;;17.00;12.80;;;14.30;99.90;;;;;;5062108;28;20560;-70
2022/08/10 04:40:43;;;;;;;18.02;13.35;;;14.40;99.90;;;;;;5051711;28;20415;-70
2022/08/10 04:43:09;;;;;;;18.70;14.35;;;14.40;99.90;;;;;;5061791;28;20072;-70
2022/08/10 04:45:35;;;;;;;18.55;14.45;;;14.40;99.90;;;;;;5057887;28;20048;-70
2022/08/10 04:48:01;;;;;;;20.50;14.05;;;14.40;99.90;;;;;;5062846;28;20043;-70
2022/08/10 04:50:27;;;;;;;15.70;13.52;;;14.40;99.90;;;;;;5063684;28;20040;-70
2022/08/10 04:52:55;;;;;;;19.92;14.05;;;14.40;99.90;;;;;;5064859;28;20055;-70
2022/08/10 04:55:21;;;;;;;19.67;13.45;;;14.40;99.90;;;;;;5057243;28;20061;-70
2022/08/10 04:57:47;;;;;;;18.63;13.55;;;14.40;99.90;;;;;;5064446;28;20039;-70
2022/08/10 05:00:13;;;;;;;18.98;14.00;;;14.50;99.90;;;;;;5065036;28;20454;-71
2022/08/10 05:02:39;;;;;;;16.65;13.75;;;14.50;99.90;;;;;;5056350;28;20072;-71
2022/08/10 05:05:05;;;;;;;17.73;13.98;;;14.60;99.90;;;;;;5054160;28;20528;-70
2022/08/10 05:07:31;;;;;;;19.27;13.68;;;14.60;99.90;;;;;;5058533;28;20080;-71
2022/08/10 05:09:56;;;;;;;17.00;14.32;;;14.70;99.90;;;;;;5060831;28;20072;-71
2022/08/10 05:12:22;;;;;;;16.10;13.00;;;14.80;99.90;;;;;;5044320;28;20079;-70
2022/08/10 05:14:48;;;;;;;18.55;13.95;;;14.90;99.90;;;;;;5060530;28;20029;-70
2022/08/10 05:17:13;;;;;;;16.05;12.75;;;14.90;99.90;;;;;;5060440;28;20142;-70
2022/08/10 05:19:39;;;;;;;14.98;12.50;;;15.00;99.90;;;;;;5057467;28;20044;-69
2022/08/10 05:22:06;;;;;;;17.60;13.18;;;15.10;99.90;;;;;;5058829;28;20064;-71
2022/08/10 05:24:31;;;;;;;13.82;12.35;;;15.10;99.90;;;;;;5061680;28;20036;-72
2022/08/10 05:26:57;;;;;;;15.02;11.82;;;15.20;99.90;;;;;;5057263;28;20041;-72
2022/08/10 05:29:23;;;;;;;13.50;12.10;;;15.30;99.90;;;;;;5054672;28;20178;-72
2022/08/10 05:31:49;;;;;;;13.52;12.07;;;15.40;99.90;;;;;;5063834;28;20079;-71
2022/08/10 05:34:16;;;;;;;13.32;11.68;;;15.40;99.90;;;;;;5049400;28;20041;-71
2022/08/10 05:36:44;;;;;;;13.70;11.13;;;15.50;99.90;;;;;;5042125;28;20036;-70
2022/08/10 05:39:11;;;;;;;12.43;11.10;;;15.60;99.90;;;;;;5060972;28;20053;-70
2022/08/10 05:41:38;;;;;;;12.20;11.00;;;15.60;99.90;;;;;;5060367;28;20064;-70
2022/08/10 05:44:03;;;;;;;13.07;11.40;;;15.70;99.90;;;;;;5043704;28;20064;-70
2022/08/10 05:46:29;;;;;;;14.25;11.20;;;15.70;99.90;;;;;;5057737;28;20040;-70
2022/08/10 05:48:55;;;;;;;11.93;10.73;;;15.80;99.90;;;;;;5059181;28;20147;-70
2022/08/10 05:51:21;;;;;;;12.43;11.13;;;15.90;99.90;;;;;;5056264;28;20044;-70
2022/08/10 05:53:48;;;;;;;12.48;11.15;;;16.00;99.90;;;;;;5062178;28;20500;-70
2022/08/10 05:56:14;;;;;;;12.65;11.35;;;16.10;99.90;;;;;;5055671;28;20056;-70
2022/08/10 05:58:40;;;;;;;11.90;10.68;;;16.20;99.90;;;;;;5057661;28;20517;-70
2022/08/10 06:01:11;;;;;;;12.55;11.15;;;16.30;99.90;;;;;;5060017;28;20174;-70
2022/08/10 06:03:46;;;;;;;11.35;10.25;;;16.40;99.90;;;;;;5060201;28;20036;-70
2022/08/10 06:06:17;;;;;;;12.70;10.80;;;16.40;99.90;;;;;;5059540;28;20057;-71
2022/08/10 06:08:46;;;;;;;11.13;10.00;;;16.50;99.90;;;;;;5055278;28;20052;-71
2022/08/10 06:11:14;;;;;;;11.40;10.32;;;16.60;99.90;;;;;;5042618;28;20473;-71
2022/08/10 06:16:30;;;;;;;12.65;9.90;;;16.80;99.90;;;;;;5059438;28;20129;-70
2022/08/10 06:18:56;;;;;;;10.07;9.07;;;16.80;99.90;;;;;;5057904;28;20037;-70
2022/08/10 06:21:22;;;;;;;10.23;9.23;;;16.90;99.90;;;;;;5040214;28;20099;-70
2022/08/10 06:23:50;;;;;;;13.52;9.80;;;17.00;99.90;;;;;;5059117;28;20110;-71
2022/08/10 06:26:16;;;;;;;9.45;8.43;;;17.10;99.90;;;;;;5044999;28;20106;-71
2022/08/10 06:28:48;;;;;;;9.32;8.35;;;17.20;99.90;;;;;;5050098;28;20361;-71
2022/08/10 06:31:16;;;;;;;9.85;8.77;;;17.30;99.90;;;;;;5059554;28;20029;-71
2022/08/10 06:33:44;;;;;;;8.32;7.53;;;17.30;99.90;;;;;;5054514;28;20052;-71
2022/08/10 06:36:11;;;;;;;9.95;8.50;;;17.40;99.90;;;;;;5055258;28;20501;-71
2022/08/10 06:38:38;;;;;;;9.73;8.80;;;17.50;99.90;;;;;;5053516;28;20079;-71
2022/08/10 06:41:17;;;;;;;10.10;8.05;;;17.50;99.90;;;;;;5075047;28;20055;-70
2022/08/10 06:43:53;;;;;;;8.25;7.43;;;17.60;99.90;;;;;;5061457;28;20063;-72
2022/08/10 06:46:22;;;;;;;8.10;6.63;;;17.80;99.90;;;;;;5041866;28;20064;-72
2022/08/10 06:48:54;;;;;;;7.97;7.18;;;17.90;99.90;;;;;;5055866;28;20468;-71
2022/08/10 06:51:28;;;;;;;6.90;5.72;;;18.00;99.90;;;;;;5061639;28;20052;-71
2022/08/10 06:53:58;;;;;;;8.00;6.00;;;18.10;99.90;;;;;;5057524;28;20131;-71
2022/08/10 06:56:26;;;;;;;9.20;6.32;;;18.20;99.90;;;;;;5046106;28;20496;-72
2022/08/10 06:58:54;;;;;;;6.72;6.05;;;18.30;99.90;;;;;;5053534;28;20083;-72
2022/08/10 07:01:27;;;;;;;7.25;5.57;;;18.50;99.90;;;;;;5039064;28;20115;-72
2022/08/10 07:04:26;;;;;;;4.80;4.30;;;18.60;99.90;;;;;;5049709;28;20049;-71
2022/08/10 07:06:54;;;;;;;6.18;4.78;;;18.80;99.90;;;;;;5058858;28;20059;-71
2022/08/10 07:09:20;;;;;;;5.82;4.82;;;18.90;99.90;;;;;;5062385;28;20060;-71
2022/08/10 07:11:49;;;;;;;8.40;4.68;;;19.10;99.90;;;;;;5055726;28;20041;-71
2022/08/10 07:14:18;;;;;;;5.25;4.47;;;19.20;99.90;;;;;;5040454;28;20053;-72
2022/08/10 07:16:46;;;;;;;4.53;3.83;;;19.30;99.90;;;;;;5057589;28;20057;-72
2022/08/10 07:19:13;;;;;;;7.35;4.03;;;19.40;99.90;;;;;;5045396;28;20072;-71
2022/08/10 07:21:42;;;;;;;6.35;4.40;;;19.60;99.90;;;;;;5055456;28;20060;-71
2022/08/10 07:24:09;;;;;;;4.57;3.60;;;19.70;99.90;;;;;;5060508;28;20148;-71
2022/08/10 07:26:44;;;;;;;5.40;3.38;;;19.90;99.90;;;;;;5052661;28;20057;-71
2022/08/10 07:29:12;;;;;;;5.60;3.45;;;20.10;99.90;;;;;;5055697;28;20820;-71
2022/08/10 07:31:39;;;;;;;8.40;3.55;;;20.20;99.90;;;;;;5061905;28;20456;-71
2022/08/10 07:34:06;;;;;;;3.42;3.13;;;20.40;99.90;;;;;;5068061;28;20109;-71
2022/08/10 07:36:34;;;;;;;5.13;3.10;;;20.70;99.90;;;;;;5068982;28;20048;-71
2022/08/10 07:39:01;;;;;;;4.70;3.00;;;20.90;99.90;;;;;;5065669;28;20040;-71
2022/08/10 07:41:30;;;;;;;5.10;2.80;;;21.20;99.90;;;;;;5051812;28;20464;-72
2022/08/10 07:44:01;;;;;;;3.85;2.50;;;21.50;99.90;;;;;;5064820;28;20799;-72
2022/08/10 07:46:29;;;;;;;3.90;2.80;;;21.70;99.90;;;;;;5062566;28;20175;-72
2022/08/10 07:49:20;;;;;;;4.65;2.83;;;21.80;99.90;;;;;;5041019;28;20420;-72
2022/08/10 07:51:50;;;;;;;7.13;2.45;;;21.90;99.90;;;;;;5043387;28;20080;-72
2022/08/10 07:54:18;;;;;;;5.13;2.90;;;22.00;99.90;;;;;;5064019;28;20068;-72
2022/08/10 07:56:47;;;;;;;5.32;2.67;;;21.90;99.90;;;;;;5067220;28;20033;-72
2022/08/10 07:59:16;;;;;;;5.63;2.50;;;22.10;99.90;;;;;;5068304;28;20060;-71
2022/08/10 08:01:49;;;;;;;3.47;2.40;;;22.20;99.90;;;;;;5067403;28;20048;-71
2022/08/10 08:04:18;;;;;;;5.38;2.20;;;22.20;99.90;;;;;;5064564;28;20052;-71
2022/08/10 08:06:45;;;;;;;2.55;1.90;;;22.20;99.90;;;;;;5042363;28;20063;-71
2022/08/10 08:09:11;;;;;;;3.75;1.88;;;22.50;99.90;;;;;;5078392;28;20074;-71
2022/08/10 08:11:42;;;;;;;3.13;2.17;;;22.90;99.90;;;;;;5066713;28;20033;-72
2022/08/10 08:14:10;;;;;;;5.93;2.10;;;23.20;99.90;;;;;;5076191;28;20052;-72
2022/08/10 08:16:39;;;;;;;5.97;2.20;;;23.60;99.90;;;;;;5061925;28;20045;-72
2022/08/10 08:19:05;;;;;;;3.17;2.17;;;23.90;99.90;;;;;;5062805;28;20036;-73
2022/08/10 08:21:33;;;;;;;3.47;1.90;;;24.10;99.90;;;;;;5050872;28;20049;-73
2022/08/10 08:24:01;;;;;;;4.15;1.80;;;24.30;99.90;;;;;;5064731;28;20056;-72
2022/08/10 08:26:27;;;;;;;2.67;1.42;;;24.60;99.90;;;;;;5069951;28;20039;-73
2022/08/10 08:28:54;;;;;;;4.47;1.67;;;25.10;99.40;;;;;;5061177;28;20088;-72
2022/08/10 08:31:21;;;;;;;5.25;1.60;;;25.60;97.50;;;;;;5063680;28;20056;-72
2022/08/10 08:33:49;;;;;;;5.82;1.50;;;26.10;96.30;;;;;;5064714;28;20052;-72
2022/08/10 08:36:18;;;;;;;3.65;1.52;;;26.60;94.90;;;;;;5058765;28;20053;-72
2022/08/10 08:38:46;;;;;;;3.22;1.10;;;27.00;92.80;;;;;;5052749;28;20372;-72
2022/08/10 08:41:55;;;;;;;5.25;1.40;;;27.20;91.90;;;;;;5056431;28;20064;-71
2022/08/10 08:44:41;;;;;;;2.50;1.08;;;27.60;86.00;;;;;;5062873;28;20037;-72
2022/08/10 08:47:47;;;;;;;5.45;1.50;;;27.80;88.20;;;;;;5065281;28;20132;-72
2022/08/10 08:50:34;;;;;;;2.38;1.00;;;28.10;85.40;;;;;;5060380;28;20040;-72
2022/08/10 08:53:11;;;;;;;2.75;1.00;;;28.30;84.80;;;;;;5062153;28;20044;-74
2022/08/10 08:55:51;;;;;;;5.22;1.10;;;28.40;77.70;;;;;;5042567;28;20067;-73
2022/08/10 08:58:35;;;;;;;3.55;0.80;;;28.40;71.90;;;;;;5058080;28;20497;-74
2022/08/10 09:01:12;;;;;;;2.33;0.88;;;28.50;76.20;;;;;;5065516;28;20056;-73
2022/08/10 09:03:56;;;;;;;1.95;0.75;;;28.70;73.90;;;;;;5054432;28;20075;-73
2022/08/10 09:06:21;;;;;;;;;;;28.60;73.70;;;;;;5046853;28;20041;-74
2022/08/10 09:09:08;;;;;;;2.60;1.00;;;28.70;71.50;;;;;;5057631;28;19927;-73
2022/08/10 09:12:12;;;;;;;2.85;0.77;;;28.80;73.60;;;;;;5061537;28;20044;-72
2022/08/10 09:14:47;;;;;;;5.47;1.08;;;28.90;67.50;;;;;;5061256;28;20091;-72
2022/08/10 09:17:31;;;;;;;4.18;0.88;;;28.90;69.00;;;;;;5055413;28;20052;-72
2022/08/10 09:20:08;;;;;;;5.05;1.17;;;28.60;67.90;;;;;;5055853;28;20037;-73
2022/08/10 09:23:00;;;;;;;4.45;0.80;;;28.60;69.20;;;;;;5055239;28;20052;-73
2022/08/10 09:25:33;;;;;;;3.15;0.88;;;28.80;67.60;;;;;;5050678;28;20140;-73
2022/08/10 09:28:06;;;;;;;;;;;28.90;67.20;;;;;;5057099;28;20045;-74
2022/08/10 09:31:01;;;;;;;2.17;0.90;;;29.10;65.30;;;;;;5061033;28;19966;-74
2022/08/10 09:33:41;;;;;;;2.58;0.60;;;29.30;66.60;;;;;;5050801;28;20053;-73
2022/08/10 09:36:35;;;;;;;3.45;0.80;;;29.60;65.50;;;;;;5041390;28;20098;-73
2022/08/10 09:39:19;;;;;;;5.65;0.75;;;29.80;60.50;;;;;;5060880;28;20120;-73
2022/08/10 09:42:07;;;;;;;2.55;0.70;;;29.90;62.70;;;;;;5050192;28;20136;-73
2022/08/10 09:45:01;;;;;;;1.85;0.70;;;29.80;61.90;;;;;;5056283;28;20057;-72
2022/08/10 09:47:40;;;;;;;1.92;0.68;;;29.70;59.50;;;;;;5056907;28;20049;-73
2022/08/10 09:50:30;;;;;;;1.70;0.50;;;29.50;59.10;;;;;;5055003;28;20052;-73
2022/08/10 09:53:02;;;;;;;3.50;1.00;;;29.70;59.80;;;;;;5063017;28;20090;-72
2022/08/10 09:56:02;;;;;;;3.17;1.00;;;29.80;57.10;;;;;;5057074;28;20048;-73
2022/08/10 09:58:37;;;;;;;3.42;0.70;;;29.80;56.50;;;;;;5046771;28;20055;-73
2022/08/10 10:01:16;;;;;;;1.90;0.63;;;29.70;57.20;;;;;;5073319;28;20200;-73
2022/08/10 10:04:16;;;;;;;2.88;0.88;;;29.60;55.10;;;;;;5059057;28;20135;-74
2022/08/10 10:07:04;;;;;;;1.95;0.52;;;29.50;56.40;;;;;;5061248;28;20052;-73
2022/08/10 10:09:50;;;;;;;3.92;0.95;;;29.50;57.30;;;;;;5045915;28;20106;-73
2022/08/10 10:12:41;;;;;;;2.92;0.60;;;29.70;56.60;;;;;;5053584;28;20052;-73
2022/08/10 10:15:32;;;;;;;1.33;0.40;;;29.90;55.60;;;;;;5055835;28;20189;-73
2022/08/10 10:18:18;;;;;;;2.55;0.70;;;29.80;55.40;;;;;;5064665;28;20067;-73
2022/08/10 10:20:56;;;;;;;2.38;0.50;;;29.90;55.10;;;;;;5059889;28;20041;-73
2022/08/10 10:23:41;;;;;;;1.10;0.57;;;29.90;54.90;;;;;;5056717;28;20056;-73
2022/08/10 10:26:58;;;;;;;3.60;0.68;;;30.00;54.90;;;;;;5060023;28;20469;-73
2022/08/10 10:29:35;;;;;;;2.03;0.43;;;30.20;53.10;;;;;;5063360;28;20076;-73
2022/08/10 10:32:22;;;;;;;4.65;0.88;;;30.20;54.80;;;;;;5062489;28;20045;-72
2022/08/10 10:35:01;;;;;;;0.73;0.35;;;30.30;51.70;;;;;;5062756;28;20053;-73
2022/08/10 10:37:29;;;;;;;1.63;0.30;;;30.00;52.50;;;;;;5053178;28;20067;-72
2022/08/10 10:39:56;;;;;;;2.67;0.30;;;30.00;52.40;;;;;;5043751;28;20106;-73
2022/08/10 10:42:30;;;;;;;1.65;0.28;;;30.10;52.00;;;;;;5058222;28;20051;-73
2022/08/10 10:45:47;;;;;;;1.70;0.40;;;30.20;52.10;;;;;;5062885;28;20052;-72
2022/08/10 10:48:46;;;;;;;1.35;0.30;;;30.40;52.30;;;;;;5062839;28;20430;-72
2022/08/10 10:51:25;;;;;;;1.38;0.43;;;30.40;50.30;;;;;;5061749;28;20037;-73
2022/08/10 10:54:12;;;;;;;1.85;0.28;;;30.60;51.80;;;;;;5060812;28;20091;-73
2022/08/10 10:57:18;;;;;;;1.35;0.47;;;31.00;49.60;;;;;;5061465;28;20143;-73
2022/08/10 11:00:06;;;;;;;2.08;0.40;;;31.00;48.90;;;;;;5057563;28;20155;-73
2022/08/10 11:02:53;;;;;;;1.55;0.50;;;31.00;48.90;;;;;;5047554;28;20125;-72
2022/08/10 11:05:30;;;;;;;2.30;0.40;;;31.10;48.80;;;;;;5069641;28;20551;-73
2022/08/10 11:08:08;;;;;;;2.00;0.43;;;30.90;48.90;;;;;;5063179;28;20072;-67
2022/08/10 11:10:49;;;;;;;1.23;0.40;;;30.70;50.10;;;;;;5063305;28;20043;-69
2022/08/10 11:13:33;;;;;;;2.92;0.50;;;30.70;48.30;;;;;;5064924;28;20040;-68
2022/08/10 11:16:29;;;;;;;0.88;0.32;;;30.70;49.60;;;;;;5067179;28;20476;-67
2022/08/10 11:19:16;;;;;;;2.08;0.40;;;30.90;48.20;;;;;;5081758;28;20045;-67
2022/08/10 11:22:04;;;;;;;2.22;0.30;;;30.80;48.20;;;;;;5070795;28;20040;-68
2022/08/10 11:24:30;;;;;;;2.28;0.30;;;30.80;48.10;;;;;;5068618;28;20040;-68
2022/08/10 11:27:12;;;;;;;0.85;0.32;;;30.90;46.80;;;;;;5057233;28;20045;-68
2022/08/10 11:29:48;;;;;;;2.03;0.40;;;31.10;47.00;;;;;;5061750;28;20096;-67
2022/08/10 11:32:39;;;;;;;1.50;0.35;;;31.20;48.70;;;;;;5066706;28;20170;-69
2022/08/10 11:35:26;;;;;;;1.20;0.30;;;31.40;47.40;;;;;;5067727;28;20040;-68
2022/08/10 11:38:10;;;;;;;2.45;0.35;;;31.30;46.20;;;;;;5065536;28;20587;-69
2022/08/10 11:40:47;;;;;;;2.05;0.30;;;31.30;46.60;;;;;;5062894;28;20048;-69
2022/08/10 11:43:21;;;;;;;1.00;0.35;;;31.30;45.20;;;;;;5064537;28;20112;-69
2022/08/10 11:46:29;;;;;;;1.60;0.30;;;31.20;45.40;;;;;;5058262;28;20053;-68
2022/08/10 11:49:09;;;;;;;3.03;0.50;;;31.10;47.10;;;;;;5057577;28;20045;-71
2022/08/10 11:51:43;;;;;;;2.50;0.43;;;31.20;45.60;;;;;;5061441;28;20047;-69
2022/08/10 11:54:43;;;;;;;2.05;0.35;;;31.40;47.30;;;;;;5057383;28;20052;-69
2022/08/10 11:57:11;;;;;;;1.67;0.30;;;31.70;44.00;;;;;;5063586;28;20164;-67
2022/08/10 11:59:57;;;;;;;2.83;0.30;;;31.60;44.10;;;;;;5069008;28;20032;-68
2022/08/10 12:02:38;;;;;;;1.65;0.43;;;31.40;44.70;;;;;;5069558;28;20041;-68
2022/08/10 12:05:10;;;;;;;1.77;0.50;;;31.80;45.40;;;;;;5062386;28;20513;-68
2022/08/10 12:07:43;;;;;;;0.82;0.30;;;32.10;43.50;;;;;;5061997;28;20687;-69
2022/08/10 12:10:13;;;;;;;0.90;0.30;;;32.40;44.00;;;;;;5060444;28;20140;-68
2022/08/10 12:13:01;;;;;;;2.85;0.40;;;32.50;43.40;;;;;;5056440;28;20040;-70
2022/08/10 12:15:35;;;;;;;2.38;0.50;;;32.30;44.10;;;;;;5062522;28;20043;-68
2022/08/10 12:18:12;;;;;;;3.72;0.32;;;32.50;43.70;;;;;;5058379;28;20041;-68
2022/08/10 12:20:42;;;;;;;2.47;0.40;;;32.40;42.80;;;;;;5060902;28;20032;-70
2022/08/10 12:23:24;;;;;;;1.85;0.40;;;32.30;41.70;;;;;;5063594;28;20045;-71
2022/08/10 12:26:11;;;;;;;1.08;0.40;;;32.30;42.20;;;;;;5068521;28;20062;-68
2022/08/10 12:28:47;;;;;;;0.82;0.22;;;32.10;42.90;;;;;;5065835;28;20036;-71
2022/08/10 12:31:15;;;;;;;3.28;0.50;;;32.30;42.70;;;;;;5058329;28;20075;-69
2022/08/10 12:33:54;;;;;;;1.50;0.30;;;32.20;43.20;;;;;;5065563;28;20052;-68
2022/08/10 12:36:31;;;;;;;1.90;0.30;;;32.10;44.00;;;;;;5063028;28;20041;-69
2022/08/10 12:39:08;;;;;;;3.00;0.40;;;32.00;43.70;;;;;;5062422;28;20029;-69
2022/08/10 12:41:43;;;;;;;1.42;0.40;;;32.10;43.90;;;;;;5058856;28;20051;-69
2022/08/10 12:44:17;;;;;;;2.55;0.40;;;32.00;42.20;;;;;;5062354;28;20076;-70
2022/08/10 12:46:54;;;;;;;2.00;0.40;;;32.10;43.60;;;;;;5068222;28;20040;-68
2022/08/10 12:49:53;;;;;;;3.45;0.35;;;32.30;43.20;;;;;;5067763;28;20040;-68
2022/08/10 12:52:43;;;;;;;2.33;0.30;;;32.30;41.40;;;;;;5066374;28;20111;-68
2022/08/10 12:55:11;;;;;;;1.65;0.47;;;32.30;42.50;;;;;;5061337;28;20052;-68
2022/08/10 12:57:38;;;;;;;2.90;0.50;;;32.20;41.30;;;;;;5066731;28;20047;-68
2022/08/10 13:00:06;;;;;;;0.98;0.35;;;32.00;43.20;;;;;;5067650;28;20126;-68
2022/08/10 13:02:38;;;;;;;5.93;0.50;;;32.10;43.40;;;;;;5056219;28;20203;-68
2022/08/10 13:05:09;;;;;;;3.55;0.40;;;32.10;41.70;;;;;;5059579;28;20075;-68
2022/08/10 13:07:38;;;;;;;3.05;0.60;;;32.00;42.10;;;;;;5057472;28;20041;-67
2022/08/10 13:10:08;;;;;;;1.77;0.30;;;32.00;42.80;;;;;;5063401;28;20510;-67
2022/08/10 13:12:38;;;;;;;1.40;0.30;;;32.20;43.60;;;;;;5057773;28;20072;-67
2022/08/10 13:15:45;;;;;;;1.05;0.38;;;32.40;43.80;;;;;;5062566;28;20044;-67
2022/08/10 13:18:14;;;;;;;4.28;0.50;;;32.40;43.30;;;;;;5055685;28;20037;-68
2022/08/10 13:20:40;;;;;;;1.13;0.30;;;32.20;44.10;;;;;;5062859;28;20406;-68